Time;durP1;ratioP1;P1;durP2;ratioP2;P2;SDS_P1;SDS_P2;PMS_P1;PMS_P2;Temp;Humidity;BMP_temperature;BMP_pressure;BME280_temperature;BME280_humidity;BME280_pressure;Samples;Min_cycle;Max_cycle;Signal;HPM_P1;HPM_P2
2023/12/09 00:01:39;;;;;;;19.63;6.22;;;10.00;83.90;;;;;;5048664;28;20044;-67
2023/12/09 00:04:04;;;;;;;15.13;6.93;;;10.00;83.90;;;;;;5050750;28;20031;-68
2023/12/09 00:06:30;;;;;;;22.55;7.35;;;9.90;83.80;;;;;;5054182;28;20029;-67
2023/12/09 00:08:56;;;;;;;16.70;6.45;;;9.90;83.80;;;;;;5054704;28;20057;-67
2023/12/09 00:11:22;;;;;;;20.38;6.53;;;10.00;83.80;;;;;;5052806;28;20061;-67
2023/12/09 00:13:47;;;;;;;16.52;6.00;;;10.00;83.80;;;;;;5052716;28;20044;-67
2023/12/09 00:16:14;;;;;;;17.10;5.47;;;10.00;83.70;;;;;;5053843;28;20031;-67
2023/12/09 00:18:39;;;;;;;14.40;5.85;;;10.00;83.80;;;;;;5035910;28;20025;-67
2023/12/09 00:21:05;;;;;;;19.75;6.53;;;10.00;83.80;;;;;;5050572;28;20323;-68
2023/12/09 00:23:31;;;;;;;18.13;6.07;;;10.00;83.70;;;;;;5052157;28;20120;-67
2023/12/09 00:25:57;;;;;;;17.80;5.88;;;10.00;83.70;;;;;;5053282;28;20349;-68
2023/12/09 00:28:22;;;;;;;18.77;6.38;;;10.00;83.70;;;;;;5052598;28;20017;-68
2023/12/09 00:30:48;;;;;;;16.77;6.53;;;10.00;83.70;;;;;;5052139;28;20080;-67
2023/12/09 00:33:15;;;;;;;18.30;6.13;;;10.00;83.70;;;;;;5031978;28;20545;-67
2023/12/09 00:35:40;;;;;;;15.60;6.05;;;10.00;83.70;;;;;;5032862;28;20134;-67
2023/12/09 00:38:06;;;;;;;14.65;6.97;;;10.00;83.80;;;;;;5069381;28;20040;-67
2023/12/09 00:40:32;;;;;;;16.30;6.88;;;10.00;83.80;;;;;;5069820;28;20025;-67
2023/12/09 00:42:58;;;;;;;19.45;7.13;;;10.00;83.70;;;;;;5054358;28;20029;-67
2023/12/09 00:45:25;;;;;;;19.92;6.55;;;10.00;83.70;;;;;;5075483;28;20058;-67
2023/12/09 00:47:51;;;;;;;15.23;6.55;;;10.00;83.70;;;;;;5057902;28;20032;-67
2023/12/09 00:50:17;;;;;;;20.15;6.47;;;10.00;83.70;;;;;;5075015;28;20056;-67
2023/12/09 00:52:43;;;;;;;19.30;5.95;;;10.00;83.70;;;;;;5057500;28;20060;-67
2023/12/09 00:55:09;;;;;;;18.08;6.10;;;10.00;83.60;;;;;;5066688;28;20104;-67
2023/12/09 00:57:35;;;;;;;15.82;5.80;;;10.10;83.70;;;;;;5064467;28;20039;-67
2023/12/09 01:00:01;;;;;;;14.73;5.40;;;10.00;83.60;;;;;;5070967;28;20026;-67
2023/12/09 01:02:27;;;;;;;17.75;6.20;;;10.00;83.60;;;;;;5046606;28;20362;-67
2023/12/09 01:04:52;;;;;;;20.55;6.20;;;10.10;83.60;;;;;;5058100;28;20025;-67
2023/12/09 01:07:18;;;;;;;17.83;5.78;;;10.10;83.70;;;;;;5063955;28;20345;-67
2023/12/09 01:09:44;;;;;;;17.10;6.10;;;10.00;83.60;;;;;;5066451;28;20043;-67
2023/12/09 01:12:09;;;;;;;17.85;5.85;;;10.10;83.70;;;;;;5069783;28;20441;-67
2023/12/09 01:14:35;;;;;;;14.18;5.97;;;10.00;83.60;;;;;;5038813;28;20036;-67
2023/12/09 01:17:01;;;;;;;14.38;5.65;;;10.00;83.60;;;;;;5034478;28;20108;-67
2023/12/09 01:19:27;;;;;;;13.70;5.07;;;10.00;83.60;;;;;;5065115;28;20033;-67
2023/12/09 01:21:53;;;;;;;15.30;6.20;;;10.00;83.60;;;;;;5069828;28;20036;-67
2023/12/09 01:24:19;;;;;;;19.38;6.05;;;10.00;83.60;;;;;;5053216;28;20045;-67
2023/12/09 01:26:45;;;;;;;18.08;5.68;;;10.00;83.60;;;;;;5070848;28;20026;-67
2023/12/09 01:29:11;;;;;;;16.92;6.55;;;10.00;83.60;;;;;;5075269;28;20420;-67
2023/12/09 01:31:37;;;;;;;20.25;6.35;;;10.00;83.60;;;;;;5074726;28;20512;-67
2023/12/09 01:34:02;;;;;;;17.05;6.60;;;10.00;83.60;;;;;;5067466;28;20220;-67
2023/12/09 01:36:28;;;;;;;16.75;6.32;;;10.00;83.60;;;;;;5066997;28;20029;-68
2023/12/09 01:38:54;;;;;;;19.27;6.32;;;9.90;83.50;;;;;;5060068;28;20060;-67
2023/12/09 01:41:19;;;;;;;16.85;5.75;;;9.90;83.60;;;;;;5075462;28;20442;-67
2023/12/09 01:43:49;;;;;;;16.15;5.70;;;9.90;83.60;;;;;;5060788;28;20104;-67
2023/12/09 01:46:16;;;;;;;17.50;6.32;;;9.90;83.60;;;;;;5056119;28;20017;-67
2023/12/09 01:48:42;;;;;;;22.35;6.88;;;9.90;83.60;;;;;;5054967;28;20094;-68
2023/12/09 01:51:08;;;;;;;16.92;5.80;;;9.90;83.60;;;;;;5074487;28;20020;-67
2023/12/09 01:53:36;;;;;;;15.55;6.10;;;9.90;83.60;;;;;;5062107;28;20048;-68
2023/12/09 01:56:05;;;;;;;18.17;6.55;;;9.80;83.60;;;;;;5062577;28;20028;-67
2023/12/09 01:58:35;;;;;;;17.30;6.85;;;9.90;83.60;;;;;;5064850;28;20107;-67
2023/12/09 02:01:01;;;;;;;16.60;6.35;;;9.90;83.60;;;;;;5071944;28;20518;-67
2023/12/09 02:03:28;;;;;;;17.08;6.03;;;9.80;83.50;;;;;;5065731;28;20132;-67
2023/12/09 02:05:54;;;;;;;14.13;5.22;;;9.80;83.50;;;;;;5055293;28;20017;-67
2023/12/09 02:08:20;;;;;;;13.43;5.18;;;9.80;83.50;;;;;;5055996;28;20021;-67
2023/12/09 02:11:05;;;;;;;19.77;6.72;;;9.80;83.50;;;;;;5068844;28;20081;-67
2023/12/09 02:13:47;;;;;;;15.85;5.60;;;9.90;83.50;;;;;;5066190;28;20029;-67
2023/12/09 02:16:26;;;;;;;19.60;6.72;;;9.90;83.50;;;;;;5055358;28;20103;-67
2023/12/09 02:18:52;;;;;;;13.00;5.30;;;9.80;83.50;;;;;;5048007;28;20105;-67
2023/12/09 02:21:17;;;;;;;18.52;6.45;;;9.80;83.50;;;;;;5069775;28;20037;-67
2023/12/09 02:23:43;;;;;;;15.10;6.05;;;9.80;83.50;;;;;;5066313;28;20343;-67
2023/12/09 02:26:18;;;;;;;17.15;6.05;;;9.80;83.50;;;;;;5053824;28;20343;-67
2023/12/09 02:28:56;;;;;;;16.38;6.75;;;9.80;83.40;;;;;;5041848;28;20036;-67
2023/12/09 02:31:26;;;;;;;16.40;6.15;;;9.80;83.40;;;;;;5055639;28;20116;-67
2023/12/09 02:33:53;;;;;;;19.30;6.57;;;9.80;83.50;;;;;;5067327;28;20025;-67
2023/12/09 02:36:21;;;;;;;17.63;7.28;;;9.80;83.50;;;;;;5055993;28;20103;-67
2023/12/09 02:38:48;;;;;;;21.30;6.32;;;9.80;83.40;;;;;;5069191;28;20155;-67
2023/12/09 02:41:15;;;;;;;15.93;5.97;;;9.80;83.40;;;;;;5054838;28;20416;-67
2023/12/09 02:43:43;;;;;;;16.67;6.60;;;9.80;83.40;;;;;;5055943;28;20028;-67
2023/12/09 02:46:13;;;;;;;16.92;6.30;;;9.80;83.40;;;;;;5056570;28;20038;-67
2023/12/09 02:48:39;;;;;;;16.55;5.35;;;9.80;83.40;;;;;;5061370;28;20437;-67
2023/12/09 02:51:06;;;;;;;15.63;5.47;;;9.80;83.40;;;;;;5057812;28;20047;-67
2023/12/09 02:53:32;;;;;;;21.85;6.28;;;9.80;83.40;;;;;;5060387;28;20033;-67
2023/12/09 02:55:58;;;;;;;15.43;5.53;;;9.80;83.40;;;;;;5060621;28;20498;-67
2023/12/09 02:58:23;;;;;;;15.48;5.50;;;9.70;83.40;;;;;;5063897;28;20364;-67
2023/12/09 03:00:49;;;;;;;15.18;6.13;;;9.70;83.40;;;;;;5045342;28;20024;-67
2023/12/09 03:03:15;;;;;;;19.10;6.25;;;9.70;83.40;;;;;;5050118;28;20032;-67
2023/12/09 03:05:41;;;;;;;16.35;5.80;;;9.70;83.40;;;;;;5062696;28;20081;-67
2023/12/09 03:08:06;;;;;;;15.23;5.22;;;9.70;83.40;;;;;;5054807;28;20029;-67
2023/12/09 03:10:32;;;;;;;18.80;5.75;;;9.70;83.40;;;;;;5050070;28;20040;-67
2023/12/09 03:12:58;;;;;;;17.30;6.20;;;9.70;83.40;;;;;;5069521;28;20085;-67
2023/12/09 03:15:24;;;;;;;16.23;5.53;;;9.70;83.40;;;;;;5070135;28;20029;-67
2023/12/09 03:17:49;;;;;;;15.95;6.32;;;9.60;83.30;;;;;;5062485;28;20049;-67
2023/12/09 03:20:17;;;;;;;15.35;6.03;;;9.60;83.30;;;;;;5060581;28;20044;-67
2023/12/09 03:22:43;;;;;;;16.65;4.93;;;9.60;83.30;;;;;;5066531;28;20077;-67
2023/12/09 03:25:09;;;;;;;16.73;6.43;;;9.60;83.30;;;;;;5067196;28;20012;-67
2023/12/09 03:27:34;;;;;;;16.35;5.88;;;9.60;83.30;;;;;;5066382;28;20025;-67
2023/12/09 03:30:00;;;;;;;15.15;5.78;;;9.60;83.20;;;;;;5039607;28;20021;-67
2023/12/09 03:32:26;;;;;;;15.57;5.90;;;9.60;83.30;;;;;;5056050;28;20388;-67
2023/12/09 03:34:53;;;;;;;20.05;6.93;;;9.60;83.30;;;;;;5058428;28;20381;-67
2023/12/09 03:37:19;;;;;;;14.55;5.55;;;9.50;83.30;;;;;;5070174;28;20494;-67
2023/12/09 03:39:45;;;;;;;14.07;5.50;;;9.50;83.20;;;;;;5053811;28;20029;-67
2023/12/09 03:42:11;;;;;;;14.18;5.93;;;9.50;83.20;;;;;;5072365;28;20025;-67
2023/12/09 03:44:36;;;;;;;18.10;6.70;;;9.50;83.20;;;;;;5055017;28;20028;-67
2023/12/09 03:47:02;;;;;;;13.45;5.38;;;9.50;83.20;;;;;;5069013;28;20032;-67
2023/12/09 03:49:28;;;;;;;14.60;4.97;;;9.60;83.20;;;;;;5064356;28;20095;-67
2023/12/09 03:51:53;;;;;;;16.27;5.43;;;9.60;83.20;;;;;;5061132;28;20492;-67
2023/12/09 03:54:19;;;;;;;17.33;4.97;;;9.50;83.20;;;;;;5071244;28;20024;-67
2023/12/09 03:56:45;;;;;;;13.00;5.40;;;9.50;83.20;;;;;;5067043;28;20032;-67
2023/12/09 03:59:11;;;;;;;21.00;6.80;;;9.50;83.10;;;;;;5057421;28;20025;-67
2023/12/09 04:01:46;;;;;;;16.20;5.45;;;9.50;83.10;;;;;;5054113;28;20021;-68
2023/12/09 04:04:12;;;;;;;13.18;4.63;;;9.50;83.10;;;;;;5054731;28;20144;-67
2023/12/09 04:06:37;;;;;;;18.35;5.30;;;9.50;83.10;;;;;;5049945;28;20112;-67
2023/12/09 04:09:04;;;;;;;16.90;5.25;;;9.50;83.10;;;;;;5063575;28;20020;-67
2023/12/09 04:11:29;;;;;;;19.17;6.32;;;9.50;83.10;;;;;;5056592;28;20028;-67
2023/12/09 04:13:55;;;;;;;20.48;5.57;;;9.40;83.10;;;;;;5068340;28;20036;-67
2023/12/09 04:16:21;;;;;;;15.13;4.80;;;9.40;83.10;;;;;;5050254;28;20013;-67
2023/12/09 04:18:47;;;;;;;18.65;5.10;;;9.50;83.10;;;;;;5073941;28;20025;-67
2023/12/09 04:21:12;;;;;;;16.55;5.10;;;9.50;83.20;;;;;;5059795;28;20378;-67
2023/12/09 04:23:38;;;;;;;14.60;4.75;;;9.50;83.20;;;;;;5072628;28;20032;-67
2023/12/09 04:26:04;;;;;;;12.95;5.60;;;9.50;83.10;;;;;;5069679;28;20059;-67
2023/12/09 04:28:30;;;;;;;13.93;4.88;;;9.50;83.00;;;;;;5071662;28;20028;-67
2023/12/09 04:30:56;;;;;;;12.52;4.80;;;9.50;83.00;;;;;;5069345;28;20071;-67
2023/12/09 04:33:22;;;;;;;12.35;4.80;;;9.50;83.00;;;;;;5073005;28;20042;-67
2023/12/09 04:35:47;;;;;;;10.65;3.97;;;9.50;83.00;;;;;;5073363;28;20021;-67
2023/12/09 04:38:13;;;;;;;16.50;5.05;;;9.50;83.00;;;;;;5067494;28;20029;-67
2023/12/09 04:40:39;;;;;;;17.60;5.22;;;9.50;83.00;;;;;;5074529;28;20470;-67
2023/12/09 04:43:05;;;;;;;13.90;4.95;;;9.50;83.00;;;;;;5068109;28;20108;-67
2023/12/09 04:45:31;;;;;;;15.95;5.53;;;9.50;83.00;;;;;;5065216;28;20041;-67
2023/12/09 04:47:56;;;;;;;14.05;5.50;;;9.60;83.00;;;;;;5058569;28;20025;-67
2023/12/09 04:50:23;;;;;;;16.00;4.95;;;9.50;82.90;;;;;;5059484;28;20028;-67
2023/12/09 04:52:48;;;;;;;13.85;5.00;;;9.50;82.90;;;;;;5045851;28;20342;-68
2023/12/09 04:55:14;;;;;;;16.10;5.30;;;9.50;82.90;;;;;;5065030;28;20048;-68
2023/12/09 04:57:40;;;;;;;15.68;4.70;;;9.50;82.80;;;;;;5052553;28;20051;-67
2023/12/09 05:00:06;;;;;;;16.80;4.65;;;9.50;82.90;;;;;;5069846;28;20086;-67
2023/12/09 05:02:32;;;;;;;17.65;5.03;;;9.50;82.90;;;;;;5057006;28;20025;-67
2023/12/09 05:04:58;;;;;;;15.23;4.93;;;9.50;82.90;;;;;;5063330;28;20047;-68
2023/12/09 05:07:26;;;;;;;14.02;4.55;;;9.50;82.90;;;;;;5064546;28;20500;-67
2023/12/09 05:09:54;;;;;;;15.27;4.82;;;9.50;82.90;;;;;;5064898;28;20035;-68
2023/12/09 05:12:20;;;;;;;13.57;4.32;;;9.50;82.90;;;;;;5056688;28;21783;-68
2023/12/09 05:14:46;;;;;;;18.38;4.93;;;9.50;82.90;;;;;;5051102;28;20025;-68
2023/12/09 05:17:12;;;;;;;16.08;5.68;;;9.50;82.90;;;;;;5056755;28;20418;-67
2023/12/09 05:19:37;;;;;;;17.27;5.32;;;9.40;82.80;;;;;;5074737;28;20040;-68
2023/12/09 05:22:03;;;;;;;16.73;4.90;;;9.40;82.80;;;;;;5045942;28;20025;-68
2023/12/09 05:24:29;;;;;;;19.27;5.10;;;9.40;82.80;;;;;;5055911;28;20449;-67
2023/12/09 05:26:57;;;;;;;16.65;5.05;;;9.40;82.90;;;;;;5041894;28;20051;-67
2023/12/09 05:29:23;;;;;;;17.98;4.63;;;9.40;82.90;;;;;;5036071;28;20029;-67
2023/12/09 05:31:49;;;;;;;16.95;5.43;;;9.40;82.90;;;;;;5040740;28;20494;-67
2023/12/09 05:34:15;;;;;;;15.15;4.60;;;9.40;82.80;;;;;;5036294;28;20120;-68
2023/12/09 05:36:40;;;;;;;19.27;5.07;;;9.40;82.80;;;;;;5037589;28;20025;-67
2023/12/09 05:39:06;;;;;;;13.57;4.60;;;9.40;82.70;;;;;;5025990;28;20029;-68
2023/12/09 05:41:32;;;;;;;11.38;4.38;;;9.40;82.70;;;;;;5038263;28;20030;-67
2023/12/09 05:43:58;;;;;;;14.95;4.70;;;9.30;82.70;;;;;;5045170;28;20021;-68
2023/12/09 05:46:23;;;;;;;13.90;4.55;;;9.40;82.70;;;;;;5038021;28;20358;-67
2023/12/09 05:48:49;;;;;;;15.93;5.55;;;9.30;82.70;;;;;;5039592;28;20071;-68
2023/12/09 05:51:15;;;;;;;15.07;4.85;;;9.30;82.70;;;;;;5037148;28;20029;-68
2023/12/09 05:53:41;;;;;;;15.13;4.20;;;9.30;82.70;;;;;;5036671;28;20091;-68
2023/12/09 05:56:13;;;;;;;12.63;4.13;;;9.30;82.70;;;;;;5038588;28;20033;-68
2023/12/09 05:58:39;;;;;;;14.48;4.30;;;9.30;82.60;;;;;;5037999;28;20117;-68
2023/12/09 06:01:07;;;;;;;16.42;4.85;;;9.30;82.70;;;;;;5028765;28;20128;-67
2023/12/09 06:03:33;;;;;;;12.93;4.35;;;9.30;82.60;;;;;;5048032;28;20379;-68
2023/12/09 06:05:58;;;;;;;13.52;5.15;;;9.30;82.60;;;;;;5054961;28;20056;-68
2023/12/09 06:08:24;;;;;;;16.40;4.88;;;9.30;82.60;;;;;;5054500;28;20036;-67
2023/12/09 06:10:51;;;;;;;14.60;4.53;;;9.30;82.60;;;;;;5054526;28;20086;-67
2023/12/09 06:13:17;;;;;;;13.48;3.60;;;9.30;82.50;;;;;;5055330;28;20123;-67
2023/12/09 06:15:42;;;;;;;13.60;4.50;;;9.30;82.50;;;;;;5066153;28;20170;-68
2023/12/09 06:18:09;;;;;;;14.90;4.50;;;9.30;82.50;;;;;;5032323;28;20119;-67
2023/12/09 06:20:35;;;;;;;13.98;4.38;;;9.30;82.50;;;;;;5055466;28;20045;-67
2023/12/09 06:23:01;;;;;;;12.88;3.95;;;9.30;82.40;;;;;;5055867;28;20032;-68
2023/12/09 06:25:26;;;;;;;12.80;3.90;;;9.30;82.50;;;;;;5073688;28;20345;-68
2023/12/09 06:27:53;;;;;;;12.68;3.88;;;9.30;82.50;;;;;;5062595;28;20028;-68
2023/12/09 06:30:18;;;;;;;14.48;3.97;;;9.30;82.30;;;;;;5062673;28;20032;-68
2023/12/09 06:32:44;;;;;;;15.07;3.72;;;9.30;82.30;;;;;;5062700;28;20028;-68
2023/12/09 06:35:10;;;;;;;13.27;4.45;;;9.30;82.30;;;;;;5054765;28;20177;-68
2023/12/09 06:37:36;;;;;;;10.43;3.72;;;9.30;82.20;;;;;;5038013;28;20074;-71
2023/12/09 06:40:24;;;;;;;15.63;3.90;;;9.30;82.20;;;;;;5072142;28;20044;-66
2023/12/09 06:42:50;;;;;;;10.05;3.92;;;9.30;82.20;;;;;;5056814;28;20044;-66
2023/12/09 06:45:16;;;;;;;12.77;4.05;;;9.30;82.30;;;;;;5064110;28;20051;-66
2023/12/09 06:47:42;;;;;;;13.38;3.35;;;9.30;82.30;;;;;;5075741;28;20032;-66
2023/12/09 06:50:08;;;;;;;10.15;3.20;;;9.30;82.30;;;;;;5055509;28;20311;-66
2023/12/09 06:52:34;;;;;;;11.90;4.13;;;9.30;82.20;;;;;;5089962;28;20460;-66
2023/12/09 06:54:59;;;;;;;14.57;3.72;;;9.30;82.20;;;;;;5080705;28;20045;-66
2023/12/09 06:57:26;;;;;;;9.85;3.50;;;9.30;82.20;;;;;;5052331;28;20111;-66
2023/12/09 06:59:52;;;;;;;15.77;4.70;;;9.30;82.20;;;;;;5049378;28;20044;-66
2023/12/09 07:02:18;;;;;;;11.25;4.22;;;9.30;82.20;;;;;;5073488;28;20082;-66
2023/12/09 07:04:44;;;;;;;13.85;4.15;;;9.30;82.20;;;;;;5074816;28;20020;-66
2023/12/09 07:07:09;;;;;;;12.20;4.15;;;9.30;82.20;;;;;;5093129;28;20107;-66
2023/12/09 07:09:35;;;;;;;12.55;4.10;;;9.30;82.20;;;;;;5085326;28;20107;-66
2023/12/09 07:12:01;;;;;;;11.55;3.67;;;9.30;82.10;;;;;;5073171;28;20040;-66
2023/12/09 07:14:26;;;;;;;10.02;3.60;;;9.30;82.10;;;;;;5073071;28;20416;-66
2023/12/09 07:16:52;;;;;;;14.95;4.13;;;9.30;82.00;;;;;;5074189;28;20036;-66
2023/12/09 07:19:18;;;;;;;10.23;3.58;;;9.30;82.10;;;;;;5067999;28;20032;-66
2023/12/09 07:21:44;;;;;;;15.23;3.70;;;9.30;82.10;;;;;;5071520;28;20059;-66
2023/12/09 07:24:10;;;;;;;10.93;2.95;;;9.30;82.10;;;;;;5074174;28;20426;-66
2023/12/09 07:26:35;;;;;;;12.70;3.13;;;9.30;82.00;;;;;;5072456;28;20052;-66
2023/12/09 07:29:05;;;;;;;11.63;3.17;;;9.30;82.00;;;;;;5032445;28;20052;-68
2023/12/09 07:31:32;;;;;;;11.52;3.17;;;9.30;82.00;;;;;;5053871;28;20450;-69
2023/12/09 07:33:58;;;;;;;12.52;3.97;;;9.30;82.00;;;;;;5054785;28;20040;-69
2023/12/09 07:36:23;;;;;;;9.35;3.33;;;9.40;81.90;;;;;;5052096;28;20079;-69
2023/12/09 07:38:49;;;;;;;13.30;4.03;;;9.40;81.80;;;;;;5044551;28;20036;-68
2023/12/09 07:41:15;;;;;;;13.23;4.10;;;9.40;81.80;;;;;;5052792;28;20029;-69
2023/12/09 07:43:41;;;;;;;12.50;4.57;;;9.40;81.70;;;;;;5052533;28;20034;-70
2023/12/09 07:46:07;;;;;;;12.15;3.88;;;9.40;81.60;;;;;;5040840;28;20454;-70
2023/12/09 07:48:33;;;;;;;13.13;4.30;;;9.40;81.60;;;;;;5023049;28;20032;-68
2023/12/09 07:50:59;;;;;;;14.57;3.33;;;9.40;81.70;;;;;;5051178;28;20450;-69
2023/12/09 07:53:25;;;;;;;8.93;3.58;;;9.40;81.70;;;;;;5039576;28;20466;-69
2023/12/09 07:55:51;;;;;;;13.93;3.63;;;9.30;81.60;;;;;;5050592;28;20055;-69
2023/12/09 07:58:17;;;;;;;14.77;3.85;;;9.30;81.60;;;;;;5048970;28;20393;-69
2023/12/09 08:00:42;;;;;;;11.32;3.03;;;9.30;81.60;;;;;;5055412;28;20108;-69
2023/12/09 08:03:11;;;;;;;13.55;4.05;;;9.30;81.60;;;;;;5057007;28;20104;-69
2023/12/09 08:05:38;;;;;;;9.98;3.00;;;9.30;81.60;;;;;;5056288;28;20104;-68
2023/12/09 08:08:04;;;;;;;13.88;3.88;;;9.30;81.60;;;;;;5039299;28;20534;-68
2023/12/09 08:10:30;;;;;;;12.70;3.97;;;9.30;81.50;;;;;;5055939;28;20111;-69
2023/12/09 08:12:56;;;;;;;10.13;3.75;;;9.30;81.50;;;;;;5057559;28;20044;-69
2023/12/09 08:15:21;;;;;;;11.90;4.07;;;9.30;81.50;;;;;;5056486;28;20029;-69
2023/12/09 08:17:47;;;;;;;13.13;3.63;;;9.30;81.50;;;;;;5036940;28;20043;-64
2023/12/09 08:20:13;;;;;;;13.05;4.72;;;9.40;81.40;;;;;;5042927;28;20052;-65
2023/12/09 08:22:39;;;;;;;12.57;3.47;;;9.40;81.30;;;;;;5061252;28;20056;-64
2023/12/09 08:25:07;;;;;;;11.45;3.15;;;9.40;81.30;;;;;;5059106;28;20031;-67
2023/12/09 08:27:33;;;;;;;11.77;3.08;;;9.40;81.30;;;;;;5061282;28;20119;-68
2023/12/09 08:30:00;;;;;;;10.02;3.15;;;9.50;81.30;;;;;;5067180;28;20079;-68
2023/12/09 08:32:26;;;;;;;12.77;3.17;;;9.40;81.10;;;;;;5063862;28;20036;-70
2023/12/09 08:34:52;;;;;;;10.25;3.58;;;9.50;81.80;;;;;;5057339;28;20036;-67
2023/12/09 08:37:25;;;;;;;12.70;3.40;;;9.50;81.20;;;;;;5065354;28;20040;-64
2023/12/09 08:39:54;;;;;;;12.98;3.35;;;9.50;81.10;;;;;;5065332;28;20048;-69
2023/12/09 08:42:20;;;;;;;13.40;3.05;;;9.50;81.00;;;;;;5055347;28;20322;-71
2023/12/09 08:44:46;;;;;;;11.38;3.38;;;9.60;81.00;;;;;;5061415;28;20107;-69
2023/12/09 08:47:12;;;;;;;8.57;3.35;;;9.50;80.90;;;;;;5067345;28;20052;-65
2023/12/09 08:49:37;;;;;;;13.63;3.60;;;9.50;80.90;;;;;;5059274;28;20057;-64
2023/12/09 08:52:03;;;;;;;13.55;3.80;;;9.50;80.80;;;;;;5055860;28;20107;-66
2023/12/09 08:54:29;;;;;;;10.05;3.45;;;9.60;80.80;;;;;;5057190;28;20025;-66
2023/12/09 08:56:55;;;;;;;8.57;3.28;;;9.70;80.80;;;;;;5040780;28;20036;-66
2023/12/09 08:59:21;;;;;;;8.35;2.53;;;9.70;80.70;;;;;;5049529;28;20029;-66
2023/12/09 09:01:47;;;;;;;9.50;3.22;;;9.70;80.60;;;;;;5059006;28;20139;-65
2023/12/09 09:04:13;;;;;;;13.35;3.03;;;9.70;80.40;;;;;;5039771;28;20061;-65
2023/12/09 09:06:38;;;;;;;10.07;2.88;;;9.70;80.40;;;;;;5061746;28;20052;-66
2023/12/09 09:09:04;;;;;;;11.63;2.83;;;9.70;80.50;;;;;;5044354;28;20022;-66
2023/12/09 09:11:30;;;;;;;10.25;2.88;;;9.70;80.50;;;;;;5056094;28;20110;-66
2023/12/09 09:13:55;;;;;;;10.32;2.80;;;9.70;80.40;;;;;;5052721;28;20021;-65
2023/12/09 09:16:21;;;;;;;12.00;2.90;;;9.70;80.30;;;;;;5056625;28;20405;-65
2023/12/09 09:18:47;;;;;;;12.00;2.80;;;9.70;80.30;;;;;;5055303;28;20032;-65
2023/12/09 09:21:13;;;;;;;11.15;2.97;;;9.70;80.40;;;;;;5037647;28;20132;-66
2023/12/09 09:23:39;;;;;;;9.77;2.45;;;9.80;80.30;;;;;;5052380;28;20021;-65
2023/12/09 09:26:05;;;;;;;6.72;2.17;;;9.70;80.20;;;;;;5035722;28;20029;-65
2023/12/09 09:28:31;;;;;;;8.60;3.13;;;9.80;80.10;;;;;;5052738;28;20017;-64
2023/12/09 09:30:57;;;;;;;8.30;2.63;;;9.80;80.00;;;;;;5036273;28;20436;-65
2023/12/09 09:33:22;;;;;;;10.73;2.90;;;9.90;80.10;;;;;;5037301;28;20626;-65
2023/12/09 09:35:51;;;;;;;7.50;2.40;;;9.80;79.90;;;;;;5055839;28;20443;-65
2023/12/09 09:38:17;;;;;;;9.45;2.75;;;9.90;80.00;;;;;;5055449;28;20117;-64
2023/12/09 09:40:43;;;;;;;8.50;2.70;;;9.90;80.00;;;;;;5055128;28;20436;-65
2023/12/09 09:43:18;;;;;;;10.35;2.72;;;9.90;79.90;;;;;;5028563;28;20032;-64
2023/12/09 09:45:46;;;;;;;8.48;2.65;;;9.90;79.90;;;;;;5055123;28;20033;-65
2023/12/09 09:48:16;;;;;;;7.88;2.70;;;9.90;79.80;;;;;;5036406;28;20036;-65
2023/12/09 09:50:48;;;;;;;11.68;2.60;;;9.90;79.80;;;;;;5035908;28;20381;-64
2023/12/09 09:53:32;;;;;;;10.85;2.58;;;9.90;79.70;;;;;;5053416;28;20028;-65
2023/12/09 09:55:59;;;;;;;11.02;2.92;;;9.90;79.80;;;;;;5052487;28;20029;-66
2023/12/09 09:58:24;;;;;;;7.65;2.60;;;9.90;79.70;;;;;;5054582;28;20056;-65
2023/12/09 10:00:55;;;;;;;8.60;2.80;;;9.90;79.70;;;;;;5053240;28;20064;-65
2023/12/09 10:03:21;;;;;;;9.73;2.90;;;9.90;79.60;;;;;;5022535;28;20051;-65
2023/12/09 10:05:48;;;;;;;9.20;2.63;;;10.00;79.60;;;;;;5042539;28;20398;-65
2023/12/09 10:08:14;;;;;;;8.18;2.45;;;10.00;79.50;;;;;;5056202;28;20107;-65
2023/12/09 10:10:40;;;;;;;7.93;2.60;;;10.00;79.50;;;;;;5039571;28;20033;-66
2023/12/09 10:13:07;;;;;;;8.32;2.17;;;10.00;79.40;;;;;;5055800;28;20501;-65
2023/12/09 10:15:33;;;;;;;9.05;2.97;;;10.10;79.30;;;;;;5054145;28;20048;-64
2023/12/09 10:18:03;;;;;;;9.05;2.30;;;10.20;79.20;;;;;;5057087;28;20064;-65
2023/12/09 10:20:30;;;;;;;8.60;2.33;;;10.30;79.00;;;;;;5053219;28;20048;-64
2023/12/09 10:22:59;;;;;;;8.30;2.75;;;10.30;78.80;;;;;;5057749;28;20131;-65
2023/12/09 10:25:25;;;;;;;7.45;2.17;;;10.40;78.70;;;;;;5055436;28;20025;-66
2023/12/09 10:27:51;;;;;;;9.25;2.95;;;10.40;78.70;;;;;;5054103;28;20353;-65
2023/12/09 10:30:20;;;;;;;9.93;2.38;;;10.40;78.60;;;;;;5062531;28;20102;-66
2023/12/09 10:32:49;;;;;;;8.50;3.15;;;10.40;78.60;;;;;;5061042;28;20025;-65
2023/12/09 10:35:19;;;;;;;9.40;2.35;;;10.40;78.60;;;;;;5072298;28;20353;-65
2023/12/09 10:37:48;;;;;;;11.82;2.47;;;10.30;78.60;;;;;;5074725;28;20111;-65
2023/12/09 10:40:14;;;;;;;9.75;2.30;;;10.40;78.70;;;;;;5072129;28;20056;-65
2023/12/09 10:42:40;;;;;;;8.15;2.42;;;10.40;78.70;;;;;;5069695;28;20181;-65
2023/12/09 10:45:07;;;;;;;9.98;2.92;;;10.40;78.60;;;;;;5070200;28;20033;-65
2023/12/09 10:47:34;;;;;;;10.18;2.90;;;10.40;78.50;;;;;;5073600;28;20039;-65
2023/12/09 10:50:00;;;;;;;8.32;2.72;;;10.40;78.40;;;;;;5053548;28;20417;-65
2023/12/09 10:52:26;;;;;;;7.13;2.40;;;10.40;78.40;;;;;;5064459;28;20064;-65
2023/12/09 10:54:52;;;;;;;7.53;2.50;;;10.50;78.30;;;;;;5053180;28;20114;-65
2023/12/09 10:57:19;;;;;;;13.05;2.97;;;10.50;78.30;;;;;;5072935;28;20028;-65
2023/12/09 10:59:44;;;;;;;12.05;3.40;;;10.50;78.20;;;;;;5058339;28;20112;-66
2023/12/09 11:02:16;;;;;;;13.07;3.88;;;10.50;78.20;;;;;;5053093;28;20092;-66
2023/12/09 11:04:42;;;;;;;9.57;3.05;;;10.50;78.20;;;;;;5053516;28;20029;-65
2023/12/09 11:07:11;;;;;;;8.77;3.22;;;10.50;78.10;;;;;;5053329;28;20021;-65
2023/12/09 11:09:38;;;;;;;6.82;2.67;;;10.50;78.00;;;;;;5052864;28;20033;-65
2023/12/09 11:12:04;;;;;;;11.65;2.83;;;10.50;78.00;;;;;;5052764;28;20043;-65
2023/12/09 11:14:31;;;;;;;11.07;2.35;;;10.50;77.90;;;;;;5048563;28;20025;-65
2023/12/09 11:16:57;;;;;;;8.73;2.75;;;10.50;77.90;;;;;;5054285;28;20032;-64
2023/12/09 11:19:24;;;;;;;7.50;1.83;;;10.50;77.80;;;;;;5052890;28;20033;-64
2023/12/09 11:21:50;;;;;;;8.02;2.30;;;10.50;77.90;;;;;;5053763;28;20048;-64
2023/12/09 11:24:18;;;;;;;8.05;2.28;;;10.50;77.90;;;;;;5052248;28;20028;-64
2023/12/09 11:26:47;;;;;;;8.00;2.08;;;10.50;77.80;;;;;;5052196;28;20033;-65
2023/12/09 11:29:16;;;;;;;7.97;2.55;;;10.50;77.80;;;;;;5051882;28;20115;-65
2023/12/09 11:31:48;;;;;;;5.45;2.00;;;10.50;77.80;;;;;;5053345;28;20060;-64
2023/12/09 11:34:18;;;;;;;;;;;10.50;77.80;;;;;;5051668;28;20627;-64
2023/12/09 11:36:46;;;;;;;9.88;2.83;;;10.50;77.80;;;;;;5059016;28;19917;-64
2023/12/09 11:39:20;;;;;;;7.65;2.50;;;10.50;77.80;;;;;;5054027;28;20331;-64
2023/12/09 11:41:47;;;;;;;8.60;2.63;;;10.50;77.80;;;;;;5053771;28;20304;-65
2023/12/09 11:44:14;;;;;;;8.98;2.22;;;10.40;77.80;;;;;;5053497;28;20052;-65
2023/12/09 11:46:40;;;;;;;7.22;1.92;;;10.40;77.80;;;;;;5053211;28;20365;-63
2023/12/09 11:49:08;;;;;;;7.47;2.00;;;10.40;77.80;;;;;;5068524;28;20112;-64
2023/12/09 11:51:35;;;;;;;6.95;2.13;;;10.40;77.80;;;;;;5035704;28;20104;-65
2023/12/09 11:54:07;;;;;;;10.13;2.70;;;10.40;77.80;;;;;;5045514;28;20115;-64
2023/12/09 11:56:34;;;;;;;8.68;2.45;;;10.40;77.80;;;;;;5057067;28;20025;-65
2023/12/09 11:59:00;;;;;;;8.07;1.95;;;10.40;77.90;;;;;;5056261;28;20082;-65
2023/12/09 12:01:29;;;;;;;6.00;2.25;;;10.40;77.90;;;;;;5058762;28;20032;-64
2023/12/09 12:03:55;;;;;;;8.48;2.83;;;10.40;77.90;;;;;;5067002;28;20013;-65
2023/12/09 12:06:22;;;;;;;10.85;2.17;;;10.40;77.90;;;;;;5054157;28;20029;-64
2023/12/09 12:08:50;;;;;;;7.38;2.30;;;10.40;78.00;;;;;;5054167;28;20025;-65
2023/12/09 12:11:17;;;;;;;7.88;2.22;;;10.40;78.00;;;;;;5056966;28;20453;-65
2023/12/09 12:13:44;;;;;;;9.63;2.92;;;10.40;78.10;;;;;;5055196;28;20044;-65
2023/12/09 12:16:10;;;;;;;7.28;2.25;;;10.40;78.10;;;;;;5051679;28;20036;-65
2023/12/09 12:18:37;;;;;;;8.73;2.20;;;10.50;78.20;;;;;;5037287;28;20035;-64
2023/12/09 12:21:03;;;;;;;11.88;2.85;;;10.40;78.10;;;;;;5053362;28;20060;-64
2023/12/09 12:23:29;;;;;;;8.25;2.70;;;10.40;78.20;;;;;;5061744;28;20076;-64
2023/12/09 12:25:55;;;;;;;11.32;2.80;;;10.40;78.30;;;;;;5030321;28;20028;-69
2023/12/09 12:28:23;;;;;;;7.05;2.20;;;10.40;78.30;;;;;;5052968;28;20495;-69
2023/12/09 12:30:53;;;;;;;9.45;2.25;;;10.40;78.40;;;;;;5050470;28;20029;-70
2023/12/09 12:33:26;;;;;;;11.50;2.65;;;10.50;78.50;;;;;;5054446;28;20037;-65
2023/12/09 12:35:54;;;;;;;6.72;2.33;;;10.40;78.50;;;;;;5060913;28;20032;-65
2023/12/09 12:38:24;;;;;;;8.82;2.28;;;10.40;78.60;;;;;;5059293;28;20024;-67
2023/12/09 12:40:51;;;;;;;10.13;2.72;;;10.40;78.70;;;;;;5075059;28;20025;-67
2023/12/09 12:43:17;;;;;;;8.68;2.85;;;10.40;78.70;;;;;;5073062;28;20025;-67